Piedmont, KS (67122)

4:21 PM CDT on July 11, 2014 (GMT -0500)
Atlanta Weather (KKSATLAN3) Elev 1447 ft | 37.43 °N, 96.76 °W | Change Station

Current weather conditions updated 7 minutes ago

Clear
Clear
91.9 °F
Feels Like 97 °F
N
11.4
Wind Variable Wind from South

Tomorrow is forecast to be nearly the same temperature as today.

Today
High -- | Low -- °F
--% Chance of Precip.
Yesterday
High -- | Low -- °F
Precip. -- in
6:13 AM 8:48 PM
Waxing Gibbous, 99% visible
Pressure 29.99 in
Visibility 10.0 miles
Clouds Clear
Heat Index 97 °F
Dew Point 69 °F
Humidity 47%
Rainfall 0.00 in
Snow Depth Not available.
UV 9 out of 12
Pollen 4.40 out of 12
Air Quality Not available.
Flu Activity No Activity
METAR KAAO 112054Z AUTO 19015KT 10SM CLR 33/21 A3003 RMK AO2 SLP153 T03330206 57006

More Conditions Fewer Conditions

Pressure 29.99 in
Visibility 10.0 miles
Clouds Clear
Heat Index 97 °F
Dew Point 69 °F
Humidity 47%
Rainfall 0.00 in
Snow Depth Not available.
UV 9 out of 12
Pollen 4.40 out of 12
Air Quality Not available.
Flu Activity No Activity
METAR KAAO 112054Z AUTO 19015KT 10SM CLR 33/21 A3003 RMK AO2 SLP153 T03330206 57006

More Conditions Fewer Conditions

10-Day Weather Forecast

Almanac

Astronomy

Jul. 11, 2014 Rise Set
Actual Time 6:13 AM CDT 8:48 PM CDT
Civil Twilight 5:42 AM CDT 9:19 PM CDT
Nautical Twilight 5:04 AM CDT 9:57 PM CDT
Astronomical Twilight 4:22 AM CDT 10:39 PM CDT
Moon 8:01 PM CDT 5:25 AM CDT
Length of Visible Light 15h 36m
Length of Day
14h 35m
Tomorrow will be 1m 4s shorter.
Waxing Gibbous, 99% of the Moon is Illuminated
Today
Waxing Gibbous
Jul 12
Full
Jul 18
Last Quarter
Jul 26
New
Aug 3
First Quarter

Today's Extremes

State Highs State Lows

Community

WunderPhotos

Upload Photos

1,732,567 photos uploaded!

WunderBlogs® & News

Nearby

Snow Depth

Station Depth Elevation
No new snow has been reported.

Earthquake Activity

City Distance Mag. Time & Date
Cherokee, Oklahoma 108 miles 2.8 10:43 AM CDT
2014-07-06
Medford, Oklahoma 102 miles 3.1 10:22 AM CDT
2014-07-06
Medford, Oklahoma 96 miles 3.2 11:10 PM CDT
2014-07-05
Perry, Oklahoma 115 miles 3.3 8:44 PM CDT
2014-07-05
Minimum magnitude displayed is 2.5.

Coastal Water Temperatures

Place Temperature
No Stations Reporting

Nearby Weather Stations

Station Location Temp. Heat Index Dew Point Humidity Wind Precip. Elev Updated Type
HADS FALL RIVER LAKE NEAR FALL RIVER KS, Fall River, KS 94 °F 104 °F 74 °F 52% SSW  at  12 mph 0.00 in / hr 1020 ft 3:00 PM CDT MADIS
Atlanta Weather, Atlanta, KS 91.9 °F 97 °F 69 °F 47% South  at  11.4 mph - / hr 1447 ft 4:14 PM CDT Normal

Show More Stations Show Fewer Stations